sensor_id;sensor_type;location;lat;lon;timestamp;pressure;altitude;pressure_sealevel;temperature;humidity
56825;BME280;42705;50.326;18.772;2023-04-04T00:02:55;99198.42;;;-0.35;56.06
56825;BME280;42705;50.326;18.772;2023-04-04T00:08:16;99196.92;;;-0.41;56.05
56825;BME280;42705;50.326;18.772;2023-04-04T00:13:39;99192.05;;;-0.39;56.49
56825;BME280;42705;50.326;18.772;2023-04-04T00:19:01;99183.56;;;-0.42;56.80
56825;BME280;42705;50.326;18.772;2023-04-04T00:24:23;99179.99;;;-0.48;56.79
56825;BME280;42705;50.326;18.772;2023-04-04T00:29:45;99178.32;;;-0.54;57.04
56825;BME280;42705;50.326;18.772;2023-04-04T00:35:08;99174.27;;;-0.61;56.82
56825;BME280;42705;50.326;18.772;2023-04-04T00:40:29;99168.92;;;-0.71;57.00
56825;BME280;42705;50.326;18.772;2023-04-04T00:45:52;99172.33;;;-0.81;57.02
56825;BME280;42705;50.326;18.772;2023-04-04T00:51:14;99177.70;;;-0.93;57.26
56825;BME280;42705;50.326;18.772;2023-04-04T00:56:38;99170.94;;;-1.01;57.50
56825;BME280;42705;50.326;18.772;2023-04-04T01:02:00;99171.23;;;-1.10;57.69
56825;BME280;42705;50.326;18.772;2023-04-04T01:07:22;99174.67;;;-1.17;57.77
56825;BME280;42705;50.326;18.772;2023-04-04T01:12:45;99177.64;;;-1.19;58.27
56825;BME280;42705;50.326;18.772;2023-04-04T01:18:08;99176.86;;;-1.21;58.55
56825;BME280;42705;50.326;18.772;2023-04-04T01:29:14;99179.77;;;-1.26;58.36
56825;BME280;42705;50.326;18.772;2023-04-04T01:40:24;99185.30;;;-1.51;58.75
56825;BME280;42705;50.326;18.772;2023-04-04T01:45:48;99186.95;;;-1.60;58.93
56825;BME280;42705;50.326;18.772;2023-04-04T01:51:12;99181.52;;;-1.68;59.18
56825;BME280;42705;50.326;18.772;2023-04-04T01:56:34;99178.23;;;-1.72;59.40
56825;BME280;42705;50.326;18.772;2023-04-04T02:01:56;99184.23;;;-1.73;59.63
56825;BME280;42705;50.326;18.772;2023-04-04T02:07:18;99186.88;;;-1.76;59.80
56825;BME280;42705;50.326;18.772;2023-04-04T02:12:41;99188.40;;;-1.81;59.85
56825;BME280;42705;50.326;18.772;2023-04-04T02:18:03;99188.72;;;-1.86;60.04
56825;BME280;42705;50.326;18.772;2023-04-04T02:23:26;99192.41;;;-1.90;59.98
56825;BME280;42705;50.326;18.772;2023-04-04T02:28:49;99195.24;;;-1.93;60.21
56825;BME280;42705;50.326;18.772;2023-04-04T02:34:12;99189.56;;;-1.92;60.22
56825;BME280;42705;50.326;18.772;2023-04-04T02:39:34;99192.92;;;-1.89;60.56
56825;BME280;42705;50.326;18.772;2023-04-04T02:44:56;99195.08;;;-1.87;60.82
56825;BME280;42705;50.326;18.772;2023-04-04T02:50:19;99197.36;;;-1.89;60.67
56825;BME280;42705;50.326;18.772;2023-04-04T02:55:45;99195.30;;;-1.95;60.46
56825;BME280;42705;50.326;18.772;2023-04-04T03:01:08;99201.14;;;-2.02;60.65
56825;BME280;42705;50.326;18.772;2023-04-04T03:06:32;99194.46;;;-2.08;60.75
56825;BME280;42705;50.326;18.772;2023-04-04T03:11:54;99195.43;;;-2.12;60.87
56825;BME280;42705;50.326;18.772;2023-04-04T03:17:16;99204.80;;;-2.11;60.87
56825;BME280;42705;50.326;18.772;2023-04-04T03:22:40;99198.17;;;-2.13;60.94
56825;BME280;42705;50.326;18.772;2023-04-04T03:28:09;99196.25;;;-2.18;61.11
56825;BME280;42705;50.326;18.772;2023-04-04T03:33:35;99201.03;;;-2.23;61.24
56825;BME280;42705;50.326;18.772;2023-04-04T03:39:00;99196.19;;;-2.28;61.36
56825;BME280;42705;50.326;18.772;2023-04-04T03:44:22;99196.14;;;-2.33;61.38
56825;BME280;42705;50.326;18.772;2023-04-04T03:49:45;99195.40;;;-2.37;61.49
56825;BME280;42705;50.326;18.772;2023-04-04T03:55:08;99191.77;;;-2.35;61.85
56825;BME280;42705;50.326;18.772;2023-04-04T04:00:30;99190.59;;;-2.37;62.07
56825;BME280;42705;50.326;18.772;2023-04-04T04:05:52;99194.48;;;-2.41;62.05
56825;BME280;42705;50.326;18.772;2023-04-04T04:11:14;99196.73;;;-2.49;62.10
56825;BME280;42705;50.326;18.772;2023-04-04T04:16:38;99191.66;;;-2.52;62.08
56825;BME280;42705;50.326;18.772;2023-04-04T04:22:03;99189.90;;;-2.56;62.28
56825;BME280;42705;50.326;18.772;2023-04-04T04:27:24;99183.27;;;-2.51;62.53
56825;BME280;42705;50.326;18.772;2023-04-04T04:32:48;99182.48;;;-2.48;62.36
56825;BME280;42705;50.326;18.772;2023-04-04T04:38:11;99177.02;;;-2.48;62.48
56825;BME280;42705;50.326;18.772;2023-04-04T04:43:34;99183.11;;;-2.45;62.47
56825;BME280;42705;50.326;18.772;2023-04-04T04:48:57;99183.19;;;-2.41;62.40
56825;BME280;42705;50.326;18.772;2023-04-04T04:54:22;99181.13;;;-2.41;62.33
56825;BME280;42705;50.326;18.772;2023-04-04T04:59:48;99186.48;;;-2.36;62.38
56825;BME280;42705;50.326;18.772;2023-04-04T05:05:13;99192.88;;;-2.33;62.48
56825;BME280;42705;50.326;18.772;2023-04-04T05:10:36;99193.48;;;-2.23;62.46
56825;BME280;42705;50.326;18.772;2023-04-04T05:15:59;99198.33;;;-2.12;62.44
56825;BME280;42705;50.326;18.772;2023-04-04T05:21:21;99205.80;;;-2.10;62.40
56825;BME280;42705;50.326;18.772;2023-04-04T05:26:45;99206.59;;;-2.07;62.32
56825;BME280;42705;50.326;18.772;2023-04-04T05:32:08;99206.30;;;-2.02;62.12
56825;BME280;42705;50.326;18.772;2023-04-04T05:37:31;99211.55;;;-2.00;62.06
56825;BME280;42705;50.326;18.772;2023-04-04T05:42:57;99214.39;;;-1.98;61.77
56825;BME280;42705;50.326;18.772;2023-04-04T05:48:24;99219.02;;;-1.86;62.01
56825;BME280;42705;50.326;18.772;2023-04-04T05:53:47;99222.64;;;-1.75;61.93
56825;BME280;42705;50.326;18.772;2023-04-04T05:59:14;99217.16;;;-1.68;61.45
56825;BME280;42705;50.326;18.772;2023-04-04T06:04:47;99221.48;;;-1.63;61.18
56825;BME280;42705;50.326;18.772;2023-04-04T06:10:14;99222.39;;;-1.60;60.91
56825;BME280;42705;50.326;18.772;2023-04-04T06:15:37;99218.88;;;-1.57;60.75
56825;BME280;42705;50.326;18.772;2023-04-04T06:20:59;99211.79;;;-1.54;60.61
56825;BME280;42705;50.326;18.772;2023-04-04T06:26:21;99210.83;;;-1.50;60.42
56825;BME280;42705;50.326;18.772;2023-04-04T06:31:44;99206.16;;;-1.43;60.19
56825;BME280;42705;50.326;18.772;2023-04-04T06:37:13;99199.53;;;-1.34;59.89
56825;BME280;42705;50.326;18.772;2023-04-04T06:42:50;99197.27;;;-1.27;59.31
56825;BME280;42705;50.326;18.772;2023-04-04T06:48:22;99193.30;;;-1.26;58.64
56825;BME280;42705;50.326;18.772;2023-04-04T06:53:44;99190.77;;;-1.27;57.92
56825;BME280;42705;50.326;18.772;2023-04-04T06:59:06;99197.30;;;-1.28;57.70
56825;BME280;42705;50.326;18.772;2023-04-04T07:04:32;99191.96;;;-1.22;57.48
56825;BME280;42705;50.326;18.772;2023-04-04T07:09:55;99184.27;;;-1.17;57.38
56825;BME280;42705;50.326;18.772;2023-04-04T07:15:17;99189.47;;;-1.07;56.85
56825;BME280;42705;50.326;18.772;2023-04-04T07:20:39;99195.66;;;-0.97;56.79
56825;BME280;42705;50.326;18.772;2023-04-04T07:26:01;99191.89;;;-0.81;56.66
56825;BME280;42705;50.326;18.772;2023-04-04T07:31:23;99190.77;;;-0.67;56.42
56825;BME280;42705;50.326;18.772;2023-04-04T07:36:45;99192.65;;;-0.56;55.77
56825;BME280;42705;50.326;18.772;2023-04-04T07:42:07;99193.36;;;-0.47;55.52
56825;BME280;42705;50.326;18.772;2023-04-04T07:47:29;99193.02;;;-0.37;55.07
56825;BME280;42705;50.326;18.772;2023-04-04T07:52:51;99196.05;;;-0.30;54.98
56825;BME280;42705;50.326;18.772;2023-04-04T07:58:15;99197.40;;;-0.10;54.94
56825;BME280;42705;50.326;18.772;2023-04-04T08:03:36;99191.02;;;0.20;54.56
56825;BME280;42705;50.326;18.772;2023-04-04T08:08:58;99197.52;;;0.49;54.53
56825;BME280;42705;50.326;18.772;2023-04-04T08:14:20;99196.58;;;0.78;53.95
56825;BME280;42705;50.326;18.772;2023-04-04T08:19:44;99198.31;;;1.00;53.71
56825;BME280;42705;50.326;18.772;2023-04-04T08:25:06;99187.77;;;1.23;53.69
56825;BME280;42705;50.326;18.772;2023-04-04T08:30:29;99189.36;;;1.47;52.89
56825;BME280;42705;50.326;18.772;2023-04-04T08:35:52;99187.87;;;1.58;52.49
56825;BME280;42705;50.326;18.772;2023-04-04T08:41:15;99192.19;;;1.58;51.37
56825;BME280;42705;50.326;18.772;2023-04-04T08:46:37;99184.70;;;1.55;51.34
56825;BME280;42705;50.326;18.772;2023-04-04T08:52:02;99176.63;;;1.59;51.17
56825;BME280;42705;50.326;18.772;2023-04-04T08:57:24;99175.70;;;1.57;50.87
56825;BME280;42705;50.326;18.772;2023-04-04T09:02:54;99178.27;;;1.53;50.61
56825;BME280;42705;50.326;18.772;2023-04-04T09:08:18;99181.08;;;1.52;50.75
56825;BME280;42705;50.326;18.772;2023-04-04T09:13:41;99181.52;;;1.50;50.69
56825;BME280;42705;50.326;18.772;2023-04-04T09:19:05;99181.45;;;1.51;50.90
56825;BME280;42705;50.326;18.772;2023-04-04T09:24:41;99184.18;;;1.43;50.55
56825;BME280;42705;50.326;18.772;2023-04-04T09:30:03;99167.34;;;1.43;50.39
56825;BME280;42705;50.326;18.772;2023-04-04T09:35:25;99163.27;;;1.53;50.42
56825;BME280;42705;50.326;18.772;2023-04-04T09:40:47;99158.21;;;1.71;49.90
56825;BME280;42705;50.326;18.772;2023-04-04T09:46:10;99166.64;;;1.79;49.49
56825;BME280;42705;50.326;18.772;2023-04-04T09:51:33;99163.85;;;1.84;49.38
56825;BME280;42705;50.326;18.772;2023-04-04T09:56:59;99160.62;;;1.95;49.37
56825;BME280;42705;50.326;18.772;2023-04-04T10:02:21;99158.67;;;2.04;48.90
56825;BME280;42705;50.326;18.772;2023-04-04T10:07:43;99154.40;;;2.19;47.88
56825;BME280;42705;50.326;18.772;2023-04-04T10:13:10;99149.85;;;2.36;47.51
56825;BME280;42705;50.326;18.772;2023-04-04T10:18:33;99159.51;;;2.66;47.57
56825;BME280;42705;50.326;18.772;2023-04-04T10:23:57;99160.95;;;2.79;47.64
56825;BME280;42705;50.326;18.772;2023-04-04T10:29:20;99150.89;;;2.84;47.00
56825;BME280;42705;50.326;18.772;2023-04-04T10:34:45;99148.55;;;2.82;47.14
56825;BME280;42705;50.326;18.772;2023-04-04T10:40:11;99149.31;;;2.91;47.19
56825;BME280;42705;50.326;18.772;2023-04-04T10:45:36;99146.15;;;3.04;46.99
56825;BME280;42705;50.326;18.772;2023-04-04T10:51:04;99145.40;;;3.05;46.70
56825;BME280;42705;50.326;18.772;2023-04-04T10:56:28;99146.16;;;3.11;46.06
56825;BME280;42705;50.326;18.772;2023-04-04T11:01:59;99142.13;;;3.15;45.77
56825;BME280;42705;50.326;18.772;2023-04-04T11:07:27;99142.85;;;3.22;46.11
56825;BME280;42705;50.326;18.772;2023-04-04T11:12:54;99148.36;;;3.32;45.91
56825;BME280;42705;50.326;18.772;2023-04-04T11:18:19;99146.20;;;3.34;45.65
56825;BME280;42705;50.326;18.772;2023-04-04T11:29:19;99139.86;;;3.67;45.09
56825;BME280;42705;50.326;18.772;2023-04-04T11:34:41;99131.35;;;3.75;45.05
56825;BME280;42705;50.326;18.772;2023-04-04T11:40:10;99126.93;;;3.90;44.92
56825;BME280;42705;50.326;18.772;2023-04-04T11:45:35;99130.74;;;4.00;44.86
56825;BME280;42705;50.326;18.772;2023-04-04T11:50:57;99138.08;;;4.08;44.45
56825;BME280;42705;50.326;18.772;2023-04-04T11:56:20;99132.42;;;4.14;43.90
56825;BME280;42705;50.326;18.772;2023-04-04T12:01:42;99126.69;;;4.21;43.71
56825;BME280;42705;50.326;18.772;2023-04-04T12:07:07;99126.77;;;4.39;43.44
56825;BME280;42705;50.326;18.772;2023-04-04T12:12:29;99123.42;;;4.62;43.13
56825;BME280;42705;50.326;18.772;2023-04-04T12:17:51;99121.67;;;4.78;42.90
56825;BME280;42705;50.326;18.772;2023-04-04T12:23:13;99128.83;;;5.02;42.51
56825;BME280;42705;50.326;18.772;2023-04-04T12:28:35;99118.88;;;5.21;42.31
56825;BME280;42705;50.326;18.772;2023-04-04T12:34:00;99126.64;;;5.55;42.23
56825;BME280;42705;50.326;18.772;2023-04-04T12:39:25;99117.92;;;5.88;41.28
56825;BME280;42705;50.326;18.772;2023-04-04T12:44:49;99122.67;;;6.27;40.92
56825;BME280;42705;50.326;18.772;2023-04-04T12:50:20;99131.48;;;6.27;40.34
56825;BME280;42705;50.326;18.772;2023-04-04T12:55:46;99124.33;;;6.11;40.20
56825;BME280;42705;50.326;18.772;2023-04-04T13:01:09;99138.65;;;5.59;39.84
56825;BME280;42705;50.326;18.772;2023-04-04T13:06:31;99134.95;;;5.92;39.57
56825;BME280;42705;50.326;18.772;2023-04-04T13:12:02;99120.92;;;8.71;36.94
56825;BME280;42705;50.326;18.772;2023-04-04T13:17:24;99120.25;;;11.69;34.81
56825;BME280;42705;50.326;18.772;2023-04-04T13:22:48;99114.73;;;14.48;32.11
56825;BME280;42705;50.326;18.772;2023-04-04T13:28:10;99115.23;;;14.99;31.59
56825;BME280;42705;50.326;18.772;2023-04-04T13:33:33;99121.34;;;13.44;32.56
56825;BME280;42705;50.326;18.772;2023-04-04T13:38:55;99126.27;;;11.38;32.94
56825;BME280;42705;50.326;18.772;2023-04-04T13:44:17;99132.52;;;9.34;33.21
56825;BME280;42705;50.326;18.772;2023-04-04T13:49:38;99133.13;;;8.06;34.31
56825;BME280;42705;50.326;18.772;2023-04-04T13:55:00;99132.34;;;6.93;34.85
56825;BME280;42705;50.326;18.772;2023-04-04T14:00:23;99127.00;;;6.12;35.42
56825;BME280;42705;50.326;18.772;2023-04-04T14:05:46;99127.91;;;5.51;35.80
56825;BME280;42705;50.326;18.772;2023-04-04T14:11:08;99128.19;;;4.70;36.21
56825;BME280;42705;50.326;18.772;2023-04-04T14:16:30;99131.14;;;4.87;36.29
56825;BME280;42705;50.326;18.772;2023-04-04T14:21:51;99122.38;;;5.45;36.05
56825;BME280;42705;50.326;18.772;2023-04-04T14:27:13;99118.30;;;4.95;36.72
56825;BME280;42705;50.326;18.772;2023-04-04T14:32:35;99120.17;;;4.67;36.81
56825;BME280;42705;50.326;18.772;2023-04-04T14:37:58;99105.64;;;6.60;35.69
56825;BME280;42705;50.326;18.772;2023-04-04T14:43:20;99099.99;;;6.42;35.52
56825;BME280;42705;50.326;18.772;2023-04-04T14:48:42;99106.71;;;5.28;35.80
56825;BME280;42705;50.326;18.772;2023-04-04T14:54:04;99103.95;;;4.61;36.68
56825;BME280;42705;50.326;18.772;2023-04-04T14:59:26;99106.00;;;4.30;37.12
56825;BME280;42705;50.326;18.772;2023-04-04T15:04:48;99107.41;;;4.26;37.05
56825;BME280;42705;50.326;18.772;2023-04-04T15:10:10;99100.09;;;4.21;36.87
56825;BME280;42705;50.326;18.772;2023-04-04T15:15:32;99106.20;;;3.80;37.34
56825;BME280;42705;50.326;18.772;2023-04-04T15:20:56;99098.57;;;3.44;37.57
56825;BME280;42705;50.326;18.772;2023-04-04T15:26:19;99099.79;;;4.45;37.48
56825;BME280;42705;50.326;18.772;2023-04-04T15:31:44;99103.29;;;5.68;36.89
56825;BME280;42705;50.326;18.772;2023-04-04T15:37:09;99097.24;;;6.08;36.35
56825;BME280;42705;50.326;18.772;2023-04-04T15:42:33;99100.67;;;5.18;36.62
56825;BME280;42705;50.326;18.772;2023-04-04T15:47:55;99099.65;;;4.63;37.05
56825;BME280;42705;50.326;18.772;2023-04-04T15:53:17;99092.69;;;4.04;37.38
56825;BME280;42705;50.326;18.772;2023-04-04T15:58:39;99095.77;;;3.41;37.56
56825;BME280;42705;50.326;18.772;2023-04-04T16:04:01;99102.77;;;2.87;38.04
56825;BME280;42705;50.326;18.772;2023-04-04T16:09:23;99106.65;;;2.56;38.86
56825;BME280;42705;50.326;18.772;2023-04-04T16:14:45;99110.27;;;2.26;38.96
56825;BME280;42705;50.326;18.772;2023-04-04T16:20:08;99102.25;;;1.94;39.41
56825;BME280;42705;50.326;18.772;2023-04-04T16:25:30;99096.39;;;1.71;40.06
56825;BME280;42705;50.326;18.772;2023-04-04T16:30:52;99101.64;;;1.53;40.28
56825;BME280;42705;50.326;18.772;2023-04-04T16:36:14;99104.93;;;1.41;40.43
56825;BME280;42705;50.326;18.772;2023-04-04T16:41:36;99106.23;;;1.30;40.69
56825;BME280;42705;50.326;18.772;2023-04-04T16:47:01;99108.09;;;1.15;40.72
56825;BME280;42705;50.326;18.772;2023-04-04T16:52:24;99104.84;;;1.06;41.30
56825;BME280;42705;50.326;18.772;2023-04-04T16:57:46;99111.96;;;1.08;41.65
56825;BME280;42705;50.326;18.772;2023-04-04T17:03:08;99105.48;;;1.07;42.03
56825;BME280;42705;50.326;18.772;2023-04-04T17:08:30;99113.27;;;1.01;41.99
56825;BME280;42705;50.326;18.772;2023-04-04T17:13:53;99121.45;;;0.95;42.24
56825;BME280;42705;50.326;18.772;2023-04-04T17:19:15;99116.58;;;0.88;42.13
56825;BME280;42705;50.326;18.772;2023-04-04T17:24:38;99121.41;;;0.83;42.47
56825;BME280;42705;50.326;18.772;2023-04-04T17:30:00;99127.13;;;0.69;42.22
56825;BME280;42705;50.326;18.772;2023-04-04T17:35:23;99129.66;;;0.56;42.31
56825;BME280;42705;50.326;18.772;2023-04-04T17:40:47;99129.59;;;0.46;42.61
56825;BME280;42705;50.326;18.772;2023-04-04T17:46:10;99135.73;;;0.38;42.89
56825;BME280;42705;50.326;18.772;2023-04-04T17:51:32;99137.00;;;0.22;42.92
56825;BME280;42705;50.326;18.772;2023-04-04T17:56:55;99148.21;;;0.16;43.42
56825;BME280;42705;50.326;18.772;2023-04-04T18:02:18;99151.78;;;0.12;43.61
56825;BME280;42705;50.326;18.772;2023-04-04T18:07:40;99158.23;;;0.10;43.69
56825;BME280;42705;50.326;18.772;2023-04-04T18:13:02;99156.59;;;0.03;43.80
56825;BME280;42705;50.326;18.772;2023-04-04T18:18:24;99159.34;;;-0.07;44.05
56825;BME280;42705;50.326;18.772;2023-04-04T18:23:46;99159.14;;;-0.10;44.45
56825;BME280;42705;50.326;18.772;2023-04-04T18:29:11;99157.58;;;-0.10;44.75
56825;BME280;42705;50.326;18.772;2023-04-04T18:34:33;99157.13;;;-0.12;44.98
56825;BME280;42705;50.326;18.772;2023-04-04T18:39:55;99154.56;;;-0.18;44.86
56825;BME280;42705;50.326;18.772;2023-04-04T18:45:18;99155.83;;;-0.24;45.06
56825;BME280;42705;50.326;18.772;2023-04-04T18:50:41;99160.05;;;-0.32;45.15
56825;BME280;42705;50.326;18.772;2023-04-04T18:56:05;99163.42;;;-0.35;45.64
56825;BME280;42705;50.326;18.772;2023-04-04T19:01:28;99164.45;;;-0.40;45.54
56825;BME280;42705;50.326;18.772;2023-04-04T19:06:52;99161.27;;;-0.47;45.63
56825;BME280;42705;50.326;18.772;2023-04-04T19:12:15;99160.89;;;-0.56;45.88
56825;BME280;42705;50.326;18.772;2023-04-04T19:17:38;99157.43;;;-0.61;46.03
56825;BME280;42705;50.326;18.772;2023-04-04T19:23:01;99153.45;;;-0.65;46.28
56825;BME280;42705;50.326;18.772;2023-04-04T19:28:23;99150.77;;;-0.67;46.56
56825;BME280;42705;50.326;18.772;2023-04-04T19:33:50;99148.90;;;-0.73;46.43
56825;BME280;42705;50.326;18.772;2023-04-04T19:39:21;99146.43;;;-0.75;46.76
56825;BME280;42705;50.326;18.772;2023-04-04T19:44:43;99145.11;;;-0.77;46.62
56825;BME280;42705;50.326;18.772;2023-04-04T19:50:06;99144.28;;;-0.78;46.68
56825;BME280;42705;50.326;18.772;2023-04-04T19:55:37;99142.33;;;-0.81;46.70
56825;BME280;42705;50.326;18.772;2023-04-04T20:01:00;99141.84;;;-0.87;47.16
56825;BME280;42705;50.326;18.772;2023-04-04T20:06:25;99140.10;;;-0.92;47.25
56825;BME280;42705;50.326;18.772;2023-04-04T20:11:50;99139.70;;;-0.95;47.55
56825;BME280;42705;50.326;18.772;2023-04-04T20:17:12;99144.12;;;-1.00;47.56
56825;BME280;42705;50.326;18.772;2023-04-04T20:22:38;99145.73;;;-1.07;47.70
56825;BME280;42705;50.326;18.772;2023-04-04T20:28:00;99143.36;;;-1.13;47.85
56825;BME280;42705;50.326;18.772;2023-04-04T20:33:38;99151.36;;;-1.17;47.97
56825;BME280;42705;50.326;18.772;2023-04-04T20:39:00;99153.01;;;-1.20;48.28
56825;BME280;42705;50.326;18.772;2023-04-04T20:44:23;99145.92;;;-1.24;48.69
56825;BME280;42705;50.326;18.772;2023-04-04T20:49:45;99146.38;;;-1.27;48.90
56825;BME280;42705;50.326;18.772;2023-04-04T20:55:07;99145.84;;;-1.33;48.99
56825;BME280;42705;50.326;18.772;2023-04-04T21:06:21;99143.73;;;-1.41;48.78
56825;BME280;42705;50.326;18.772;2023-04-04T21:11:50;99144.29;;;-1.43;48.93
56825;BME280;42705;50.326;18.772;2023-04-04T21:17:12;99145.86;;;-1.44;49.33
56825;BME280;42705;50.326;18.772;2023-04-04T21:22:34;99143.91;;;-1.47;49.66
56825;BME280;42705;50.326;18.772;2023-04-04T21:27:59;99145.28;;;-1.53;50.06
56825;BME280;42705;50.326;18.772;2023-04-04T21:33:21;99143.72;;;-1.58;50.08
56825;BME280;42705;50.326;18.772;2023-04-04T21:38:43;99142.08;;;-1.61;50.21
56825;BME280;42705;50.326;18.772;2023-04-04T21:44:07;99141.72;;;-1.66;50.27
56825;BME280;42705;50.326;18.772;2023-04-04T21:49:29;99130.34;;;-1.69;50.17
56825;BME280;42705;50.326;18.772;2023-04-04T21:54:51;99126.41;;;-1.69;50.24
56825;BME280;42705;50.326;18.772;2023-04-04T22:00:13;99122.64;;;-1.69;50.11
56825;BME280;42705;50.326;18.772;2023-04-04T22:05:35;99114.25;;;-1.69;50.25
56825;BME280;42705;50.326;18.772;2023-04-04T22:10:57;99114.09;;;-1.70;50.19
56825;BME280;42705;50.326;18.772;2023-04-04T22:16:19;99108.83;;;-1.71;50.30
56825;BME280;42705;50.326;18.772;2023-04-04T22:21:41;99105.25;;;-1.72;50.27
56825;BME280;42705;50.326;18.772;2023-04-04T22:27:08;99108.59;;;-1.75;50.19
56825;BME280;42705;50.326;18.772;2023-04-04T22:32:30;99110.70;;;-1.83;50.27
56825;BME280;42705;50.326;18.772;2023-04-04T22:37:54;99106.83;;;-1.91;50.19
56825;BME280;42705;50.326;18.772;2023-04-04T22:43:21;99107.55;;;-1.98;50.31
56825;BME280;42705;50.326;18.772;2023-04-04T22:48:43;99105.02;;;-1.99;50.23
56825;BME280;42705;50.326;18.772;2023-04-04T22:54:07;99102.51;;;-2.01;50.43
56825;BME280;42705;50.326;18.772;2023-04-04T22:59:30;99100.29;;;-2.07;50.39
56825;BME280;42705;50.326;18.772;2023-04-04T23:04:52;99099.15;;;-2.10;50.53
56825;BME280;42705;50.326;18.772;2023-04-04T23:10:14;99094.83;;;-2.14;50.75
56825;BME280;42705;50.326;18.772;2023-04-04T23:15:37;99085.94;;;-2.14;50.95
56825;BME280;42705;50.326;18.772;2023-04-04T23:20:59;99085.05;;;-2.14;51.20
56825;BME280;42705;50.326;18.772;2023-04-04T23:26:21;99079.89;;;-2.13;51.55
56825;BME280;42705;50.326;18.772;2023-04-04T23:31:43;99079.75;;;-2.14;51.78
56825;BME280;42705;50.326;18.772;2023-04-04T23:37:04;99072.04;;;-2.13;52.14
56825;BME280;42705;50.326;18.772;2023-04-04T23:42:27;99069.64;;;-2.14;52.19
56825;BME280;42705;50.326;18.772;2023-04-04T23:47:48;99063.89;;;-2.15;52.55
56825;BME280;42705;50.326;18.772;2023-04-04T23:53:11;99057.81;;;-2.18;52.78
56825;BME280;42705;50.326;18.772;2023-04-04T23:58:33;99057.53;;;-2.21;53.05
